الصفحة الرئيسية
METAR-TAF:

METAR-TAF

مطار :

ماردين, تركيا

دائرة عرض: 37-13-58N, خط طول: 40-38-26E, ارتفاع: 527 متر

مراقبة الطقس الحالي

تاريخ ووقت الإصدار 24 دقيقة قبل الساعة 04:50UTC
ريح 4 عقدة من الشرق/الشمال الشرقي, الاتجاه يتراوح بين الشمال الشرقي و الشرق
درجة الحرارة 34°درجة مئوية
الرطوبة 13%
ضغط 1010 hPa
الرؤية 10 كم أو أكثر
الغيوم لا تقل 1500 م ولا وجود لمزنة ركامية السحاب الأسود

METAR: LTCR 190450Z 07004KT 040V100 CAVOK 34/02 Q1010

زمن: 08:14 (05:14 UTC)

توقعات

تاريخ ووقت الإصدار 3ساعات و 34 دقيقة قبل الساعة 01:40UTC
التوقعات صالحة من19 الساعة 03 UTC إلى 19 الساعة 12 UTC
ريح 2 عقدةمن اتجاهات متغيرة
الرؤية 10 كم أو أكثر
الغيوم لا تقل 1500 م ولا وجود لمزنة ركامية السحاب الأسود

TAF: LTCR 190140Z 1903/1912 VRB02KT CAVOK

أرصاد الطقس والتوقعات من أكثر من 4000 مطار (تقارير الطقس للمطار METAR والتنبؤ بالطقس بالمطارTAF).

المحطات المتاحة هي النقط الصفراء والحمراء على الخريطة.

حرك المؤشر فوق النقطة لمعرفة اسم المحطة.

ثم انقر لمعرفة أرصاد وتوقعات الطقس.

لتغيير الخارطة: اضغط على الأزرار الخضراء مع رمز الصليب الأسود للتكبير. على الزر الأخضر مع شرطة للتصغير، أو على الأسهم الخضراء للخرائط المجاورة.


METAR-TAF: